Ivan — CRXJ — position and weather

sailwx.info

Track history (hours):
 
Tides and Currents Weather Stations Pressure Air Temp Water Temp Dewpoint Dewpoint Depression Visibility Wind Speed Wind Dir Waves Ship Positions

Ivan

Last reported at 2017-Oct-18 14:34 UTC. Time now 2017-Oct-19 11:25 UTC.
Position N 38°18' W 009°59'.

Length 100 m; draft 5.7 m.

Type: Cargo ship. MMSI: 255786000.

Date/timePositionNaut miles runAvg speedWind from/ knotsBaromVisibWave heightAir tempDewpointWater temp
2017-Oct-18 14:34N 38°18' W 009°59'610.5
2017-Oct-18 14:00N 38°23' W 010°00'510.3
2017-Oct-18 13:30N 38°28' W 010°02'510.2
2017-Oct-18 13:00N 38°33' W 010°03'510.2
2017-Oct-18 12:29N 38°38' W 010°05'510.7
2017-Oct-18 12:00N 38°44' W 010°05'510.5
2017-Oct-18 11:30N 38°49' W 010°05'510.0
2017-Oct-18 11:00N 38°54' W 010°04'510.3
2017-Oct-18 10:30N 38°59' W 010°03'510.4
2017-Oct-18 10:00N 39°04' W 010°01'510.4
2017-Oct-18 09:30N 39°09' W 009°59'510.5
2017-Oct-18 09:00N 39°14' W 009°57'510.7
2017-Oct-18 08:30N 39°19' W 009°55'510.8
2017-Oct-18 08:00N 39°24' W 009°54'  
2017-Oct-14 12:40N 39°32' W 009°44'210.4
2017-Oct-14 12:29N 39°30' W 009°45'510.2
2017-Oct-14 12:00N 39°26' W 009°46'5 9.9
2017-Oct-14 11:31N 39°21' W 009°46'5 9.7
2017-Oct-14 11:00N 39°16' W 009°47'510.3
2017-Oct-14 10:31N 39°11' W 009°48'5 9.8
2017-Oct-14 10:00N 39°06' W 009°49'5 9.3
2017-Oct-14 09:30N 39°01' W 009°49'5 9.7
2017-Oct-14 09:00N 38°56' W 009°50'5 9.7
2017-Oct-14 08:31N 38°52' W 009°50'5 9.8
2017-Oct-14 08:00N 38°47' W 009°50'510.4
2017-Oct-14 07:30N 38°41' W 009°50'510.9
2017-Oct-14 07:00N 38°36' W 009°50'611.1
2017-Oct-14 06:30N 38°31' W 009°49'611.3
2017-Oct-14 06:00N 38°25' W 009°47'611.1
2017-Oct-14 05:31N 38°20' W 009°45'611.2
2017-Oct-14 05:00N 38°14' W 009°43'611.1
2017-Oct-14 04:30N 38°09' W 009°42'511.0
2017-Oct-14 04:00N 38°03' W 009°40'611.1
2017-Oct-14 03:31N 37°58' W 009°38'511.0
2017-Oct-14 03:00N 37°53' W 009°36'511.0
2017-Oct-14 02:30N 37°47' W 009°35'510.8
2017-Oct-14 02:00N 37°42' W 009°33'510.6
2017-Oct-14 01:31N 37°37' W 009°32'510.7
2017-Oct-14 01:00N 37°32' W 009°30'510.6
2017-Oct-14 00:30N 37°27' W 009°28'510.8
2017-Oct-14 00:00N 37°21' W 009°27'510.9
2017-Oct-13 23:30N 37°16' W 009°25'510.8
2017-Oct-13 23:00N 37°11' W 009°23'510.8
2017-Oct-13 22:30N 37°06' W 009°22'510.3
2017-Oct-13 22:00N 37°01' W 009°20'510.0
2017-Oct-13 21:30N 36°56' W 009°18'5 9.7
2017-Oct-13 21:00N 36°52' W 009°15'510.9
2017-Oct-13 20:30N 36°47' W 009°11'510.7
2017-Oct-13 20:00N 36°44' W 009°06'510.9
2017-Oct-13 19:30N 36°43' W 008°59'510.9
2017-Oct-13 19:00N 36°41' W 008°53'510.7
2017-Oct-13 18:30N 36°40' W 008°46'510.9
2017-Oct-13 18:00N 36°38' W 008°40'510.5
2017-Oct-13 17:30N 36°36' W 008°34'510.6
2017-Oct-13 17:00N 36°35' W 008°27'510.7
2017-Oct-13 16:30N 36°33' W 008°21'510.8
2017-Oct-13 16:00N 36°31' W 008°15'610.9
2017-Oct-13 15:30N 36°29' W 008°08'611.3
2017-Oct-13 15:00N 36°27' W 008°02'511.1
2017-Oct-13 14:30N 36°26' W 007°55'511.0
2017-Oct-13 14:00N 36°24' W 007°49'611.1
2017-Oct-13 13:30N 36°22' W 007°42'611.4
2017-Oct-13 13:00N 36°21' W 007°35'611.4
2017-Oct-13 12:30N 36°19' W 007°29'611.5
2017-Oct-13 12:00N 36°17' W 007°22'7210.7
2017-Oct-13 05:19N 35°58' W 005°56'311.0
2017-Oct-13 05:00N 35°58' W 005°52'611.6
2017-Oct-13 04:30N 35°58' W 005°45'510.9
2017-Oct-13 04:00N 35°58' W 005°38'510.8
2017-Oct-13 03:30N 35°58' W 005°32'5 9.0
2017-Oct-13 02:59N 35°54' W 005°30'0 0.0
2017-Oct-12 21:37N 35°53' W 005°30'0 1.0
2017-Oct-12 21:30N 35°54' W 005°30'2 3.5
2017-Oct-12 20:57N 35°55' W 005°31'1 3.1
2017-Oct-12 20:29N 35°55' W 005°33'19 6.9
2017-Oct-12 17:46N 35°55' W 005°56'4 9.5
2017-Oct-12 17:24N 35°55' W 006°01'4 9.1
2017-Oct-12 16:57N 35°55' W 006°06'4 8.9
2017-Oct-12 16:28N 35°55' W 006°11'4 8.8
2017-Oct-12 16:00N 35°56' W 006°16'5 9.0
2017-Oct-12 15:30N 35°57' W 006°21'5 9.5
2017-Oct-12 15:00N 35°58' W 006°27'5 9.9
2017-Oct-12 14:30N 35°59' W 006°33'510.3
2017-Oct-12 14:00N 36°01' W 006°39'510.1
2017-Oct-12 13:30N 36°02' W 006°45'510.0
2017-Oct-12 13:00N 36°03' W 006°51'510.0
2017-Oct-12 12:30N 36°04' W 006°57'510.0
2017-Oct-12 12:00N 36°06' W 007°03'5 9.9
2017-Oct-12 11:30N 36°07' W 007°09'510.2
2017-Oct-12 10:59N 36°08' W 007°15'510.2
2017-Oct-12 10:30N 36°10' W 007°21'5 9.9
2017-Oct-12 10:00N 36°11' W 007°27'5 9.9
2017-Oct-12 09:28N 36°12' W 007°33'510.1
2017-Oct-12 09:00N 36°13' W 007°39'510.5
2017-Oct-12 08:30N 36°15' W 007°45'510.6
2017-Oct-12 08:00N 36°16' W 007°52'510.5
2017-Oct-12 07:30N 36°18' W 007°58'510.0
2017-Oct-12 07:00N 36°19' W 008°04'510.5
2017-Oct-12 06:30N 36°20' W 008°10'510.8
2017-Oct-12 06:00N 36°22' W 008°17'510.8
2017-Oct-12 05:30N 36°23' W 008°23'610.9
2017-Oct-12 05:00N 36°24' W 008°30'611.2
2017-Oct-12 04:30N 36°26' W 008°36'611.0
2017-Oct-12 03:59N 36°27' W 008°43'510.5
2017-Oct-12 03:30N 36°29' W 008°49'510.8
2017-Oct-12 03:00N 36°30' W 008°56'611.2
2017-Oct-12 02:30N 36°31' W 009°02'611.8
2017-Oct-12 02:00N 36°33' W 009°10'611.3
2017-Oct-12 01:28N 36°34' W 009°17'611.1
2017-Oct-12 00:56N 36°38' W 009°22'710.8
2017-Oct-12 00:15N 36°44' W 009°29'310.9
2017-Oct-12 00:00N 36°45' W 009°31'510.3
2017-Oct-11 23:30N 36°50' W 009°34'810.9
2017-Oct-11 22:47N 36°58' W 009°36'410.6
2017-Oct-11 22:26N 37°01' W 009°38'2910.3
2017-Oct-11 19:38N 37°29' W 009°45'110.6
2017-Oct-11 19:30N 37°31' W 009°45'510.6
2017-Oct-11 19:00N 37°36' W 009°47'510.7
2017-Oct-11 18:30N 37°41' W 009°48'510.8
2017-Oct-11 18:00N 37°46' W 009°50'511.0
2017-Oct-11 17:30N 37°52' W 009°52'611.0
2017-Oct-11 17:00N 37°57' W 009°53'18210.7
2017-Oct-11 00:00N 40°57' W 009°23'711.1
2017-Oct-10 23:21N 41°04' W 009°20'410.9
2017-Oct-10 23:00N 41°08' W 009°19'610.8
2017-Oct-10 22:28N 41°13' W 009°17'511.1
2017-Oct-10 21:59N 41°19' W 009°15'611.0
2017-Oct-10 21:29N 41°24' W 009°13'  
Track history (hours):
 
Tides and Currents Weather Stations Pressure Air Temp Water Temp Dewpoint Dewpoint Depression Visibility Wind Speed Wind Dir Waves Ship Positions

Ivan

Last reported at 2017-Oct-18 14:34 UTC. Time now 2017-Oct-19 11:25 UTC.
Position N 38°18' W 009°59'.

Length 100 m; draft 5.7 m.

Type: Cargo ship. MMSI: 255786000.

Date/timePositionNaut miles runAvg speedWind from/ knotsBaromVisibWave heightAir tempDewpointWater temp
2017-Oct-18 14:34N 38°18' W 009°59'610.5
2017-Oct-18 14:00N 38°23' W 010°00'510.3
2017-Oct-18 13:30N 38°28' W 010°02'510.2
2017-Oct-18 13:00N 38°33' W 010°03'510.2
2017-Oct-18 12:29N 38°38' W 010°05'510.7
2017-Oct-18 12:00N 38°44' W 010°05'510.5
2017-Oct-18 11:30N 38°49' W 010°05'510.0
2017-Oct-18 11:00N 38°54' W 010°04'510.3
2017-Oct-18 10:30N 38°59' W 010°03'510.4
2017-Oct-18 10:00N 39°04' W 010°01'510.4
2017-Oct-18 09:30N 39°09' W 009°59'510.5
2017-Oct-18 09:00N 39°14' W 009°57'510.7
2017-Oct-18 08:30N 39°19' W 009°55'510.8
2017-Oct-18 08:00N 39°24' W 009°54'  
2017-Oct-14 12:40N 39°32' W 009°44'210.4
2017-Oct-14 12:29N 39°30' W 009°45'510.2
2017-Oct-14 12:00N 39°26' W 009°46'5 9.9
2017-Oct-14 11:31N 39°21' W 009°46'5 9.7
2017-Oct-14 11:00N 39°16' W 009°47'510.3
2017-Oct-14 10:31N 39°11' W 009°48'5 9.8
2017-Oct-14 10:00N 39°06' W 009°49'5 9.3
2017-Oct-14 09:30N 39°01' W 009°49'5 9.7
2017-Oct-14 09:00N 38°56' W 009°50'5 9.7
2017-Oct-14 08:31N 38°52' W 009°50'5 9.8
2017-Oct-14 08:00N 38°47' W 009°50'510.4
2017-Oct-14 07:30N 38°41' W 009°50'510.9
2017-Oct-14 07:00N 38°36' W 009°50'611.1
2017-Oct-14 06:30N 38°31' W 009°49'611.3
2017-Oct-14 06:00N 38°25' W 009°47'611.1
2017-Oct-14 05:31N 38°20' W 009°45'611.2
2017-Oct-14 05:00N 38°14' W 009°43'611.1
2017-Oct-14 04:30N 38°09' W 009°42'511.0
2017-Oct-14 04:00N 38°03' W 009°40'611.1
2017-Oct-14 03:31N 37°58' W 009°38'511.0
2017-Oct-14 03:00N 37°53' W 009°36'511.0
2017-Oct-14 02:30N 37°47' W 009°35'510.8
2017-Oct-14 02:00N 37°42' W 009°33'510.6
2017-Oct-14 01:31N 37°37' W 009°32'510.7
2017-Oct-14 01:00N 37°32' W 009°30'510.6
2017-Oct-14 00:30N 37°27' W 009°28'510.8
2017-Oct-14 00:00N 37°21' W 009°27'510.9
2017-Oct-13 23:30N 37°16' W 009°25'510.8
2017-Oct-13 23:00N 37°11' W 009°23'510.8
2017-Oct-13 22:30N 37°06' W 009°22'510.3
2017-Oct-13 22:00N 37°01' W 009°20'510.0
2017-Oct-13 21:30N 36°56' W 009°18'5 9.7
2017-Oct-13 21:00N 36°52' W 009°15'510.9
2017-Oct-13 20:30N 36°47' W 009°11'510.7
2017-Oct-13 20:00N 36°44' W 009°06'510.9
2017-Oct-13 19:30N 36°43' W 008°59'510.9
2017-Oct-13 19:00N 36°41' W 008°53'510.7
2017-Oct-13 18:30N 36°40' W 008°46'510.9
2017-Oct-13 18:00N 36°38' W 008°40'510.5
2017-Oct-13 17:30N 36°36' W 008°34'510.6
2017-Oct-13 17:00N 36°35' W 008°27'510.7
2017-Oct-13 16:30N 36°33' W 008°21'510.8
2017-Oct-13 16:00N 36°31' W 008°15'610.9
2017-Oct-13 15:30N 36°29' W 008°08'611.3
2017-Oct-13 15:00N 36°27' W 008°02'511.1
2017-Oct-13 14:30N 36°26' W 007°55'511.0
2017-Oct-13 14:00N 36°24' W 007°49'611.1
2017-Oct-13 13:30N 36°22' W 007°42'611.4
2017-Oct-13 13:00N 36°21' W 007°35'611.4
2017-Oct-13 12:30N 36°19' W 007°29'611.5
2017-Oct-13 12:00N 36°17' W 007°22'7210.7
2017-Oct-13 05:19N 35°58' W 005°56'311.0
2017-Oct-13 05:00N 35°58' W 005°52'611.6
2017-Oct-13 04:30N 35°58' W 005°45'510.9
2017-Oct-13 04:00N 35°58' W 005°38'510.8
2017-Oct-13 03:30N 35°58' W 005°32'5 9.0
2017-Oct-13 02:59N 35°54' W 005°30'0 0.0
2017-Oct-12 21:37N 35°53' W 005°30'0 1.0
2017-Oct-12 21:30N 35°54' W 005°30'2 3.5
2017-Oct-12 20:57N 35°55' W 005°31'1 3.1
2017-Oct-12 20:29N 35°55' W 005°33'19 6.9
2017-Oct-12 17:46N 35°55' W 005°56'4 9.5
2017-Oct-12 17:24N 35°55' W 006°01'4 9.1
2017-Oct-12 16:57N 35°55' W 006°06'4 8.9
2017-Oct-12 16:28N 35°55' W 006°11'4 8.8
2017-Oct-12 16:00N 35°56' W 006°16'5 9.0
2017-Oct-12 15:30N 35°57' W 006°21'5 9.5
2017-Oct-12 15:00N 35°58' W 006°27'5 9.9
2017-Oct-12 14:30N 35°59' W 006°33'510.3
2017-Oct-12 14:00N 36°01' W 006°39'510.1
2017-Oct-12 13:30N 36°02' W 006°45'510.0
2017-Oct-12 13:00N 36°03' W 006°51'510.0
2017-Oct-12 12:30N 36°04' W 006°57'510.0
2017-Oct-12 12:00N 36°06' W 007°03'5 9.9
2017-Oct-12 11:30N 36°07' W 007°09'510.2
2017-Oct-12 10:59N 36°08' W 007°15'510.2
2017-Oct-12 10:30N 36°10' W 007°21'5 9.9
2017-Oct-12 10:00N 36°11' W 007°27'5 9.9
2017-Oct-12 09:28N 36°12' W 007°33'510.1
2017-Oct-12 09:00N 36°13' W 007°39'510.5
2017-Oct-12 08:30N 36°15' W 007°45'510.6
2017-Oct-12 08:00N 36°16' W 007°52'510.5
2017-Oct-12 07:30N 36°18' W 007°58'510.0
2017-Oct-12 07:00N 36°19' W 008°04'510.5
2017-Oct-12 06:30N 36°20' W 008°10'510.8
2017-Oct-12 06:00N 36°22' W 008°17'510.8
2017-Oct-12 05:30N 36°23' W 008°23'610.9
2017-Oct-12 05:00N 36°24' W 008°30'611.2
2017-Oct-12 04:30N 36°26' W 008°36'611.0
2017-Oct-12 03:59N 36°27' W 008°43'510.5
2017-Oct-12 03:30N 36°29' W 008°49'510.8
2017-Oct-12 03:00N 36°30' W 008°56'611.2
2017-Oct-12 02:30N 36°31' W 009°02'611.8
2017-Oct-12 02:00N 36°33' W 009°10'611.3
2017-Oct-12 01:28N 36°34' W 009°17'611.1
2017-Oct-12 00:56N 36°38' W 009°22'710.8
2017-Oct-12 00:15N 36°44' W 009°29'310.9
2017-Oct-12 00:00N 36°45' W 009°31'510.3
2017-Oct-11 23:30N 36°50' W 009°34'810.9
2017-Oct-11 22:47N 36°58' W 009°36'410.6
2017-Oct-11 22:26N 37°01' W 009°38'2910.3
2017-Oct-11 19:38N 37°29' W 009°45'110.6
2017-Oct-11 19:30N 37°31' W 009°45'510.6
2017-Oct-11 19:00N 37°36' W 009°47'510.7
2017-Oct-11 18:30N 37°41' W 009°48'510.8
2017-Oct-11 18:00N 37°46' W 009°50'511.0
2017-Oct-11 17:30N 37°52' W 009°52'611.0
2017-Oct-11 17:00N 37°57' W 009°53'18210.7
2017-Oct-11 00:00N 40°57' W 009°23'711.1
2017-Oct-10 23:21N 41°04' W 009°20'410.9
2017-Oct-10 23:00N 41°08' W 009°19'610.8
2017-Oct-10 22:28N 41°13' W 009°17'511.1
2017-Oct-10 21:59N 41°19' W 009°15'611.0
2017-Oct-10 21:29N 41°24' W 009°13'  

Dump ship's entire track history